sensor_id;sensor_type;location;lat;lon;timestamp;P1;durP1;ratioP1;P2;durP2;ratioP2
71558;SDS011;59382;43.852;25.952;2023-05-13T00:00:03;1.90;;;1.52;;
71558;SDS011;59382;43.852;25.952;2023-05-13T00:02:30;1.75;;;1.50;;
71558;SDS011;59382;43.852;25.952;2023-05-13T00:04:55;2.13;;;1.80;;
71558;SDS011;59382;43.852;25.952;2023-05-13T00:07:21;1.75;;;1.40;;
71558;SDS011;59382;43.852;25.952;2023-05-13T00:09:46;1.88;;;1.40;;
71558;SDS011;59382;43.852;25.952;2023-05-13T00:12:12;3.38;;;1.23;;
71558;SDS011;59382;43.852;25.952;2023-05-13T00:14:37;4.97;;;1.75;;
71558;SDS011;59382;43.852;25.952;2023-05-13T00:17:03;1.60;;;1.50;;
71558;SDS011;59382;43.852;25.952;2023-05-13T00:19:29;3.22;;;1.85;;
71558;SDS011;59382;43.852;25.952;2023-05-13T00:21:54;3.63;;;1.40;;
71558;SDS011;59382;43.852;25.952;2023-05-13T00:24:20;4.85;;;2.00;;
71558;SDS011;59382;43.852;25.952;2023-05-13T00:26:46;2.70;;;1.42;;
71558;SDS011;59382;43.852;25.952;2023-05-13T00:29:11;2.63;;;1.48;;
71558;SDS011;59382;43.852;25.952;2023-05-13T00:31:37;5.28;;;1.70;;
71558;SDS011;59382;43.852;25.952;2023-05-13T00:34:02;4.35;;;1.60;;
71558;SDS011;59382;43.852;25.952;2023-05-13T00:36:28;6.25;;;1.65;;
71558;SDS011;59382;43.852;25.952;2023-05-13T00:38:53;1.60;;;1.50;;
71558;SDS011;59382;43.852;25.952;2023-05-13T00:41:19;2.25;;;1.60;;
71558;SDS011;59382;43.852;25.952;2023-05-13T00:43:46;2.28;;;1.50;;
71558;SDS011;59382;43.852;25.952;2023-05-13T00:46:11;1.98;;;1.77;;
71558;SDS011;59382;43.852;25.952;2023-05-13T00:48:38;3.67;;;1.52;;
71558;SDS011;59382;43.852;25.952;2023-05-13T00:51:04;2.83;;;1.58;;
71558;SDS011;59382;43.852;25.952;2023-05-13T00:53:31;3.00;;;1.73;;
71558;SDS011;59382;43.852;25.952;2023-05-13T00:55:57;1.88;;;1.63;;
71558;SDS011;59382;43.852;25.952;2023-05-13T00:58:23;3.47;;;1.90;;
71558;SDS011;59382;43.852;25.952;2023-05-13T01:03:32;2.38;;;1.60;;
71558;SDS011;59382;43.852;25.952;2023-05-13T01:11:29;3.33;;;1.73;;
71558;SDS011;59382;43.852;25.952;2023-05-13T01:14:13;3.45;;;1.80;;
71558;SDS011;59382;43.852;25.952;2023-05-13T01:16:51;1.95;;;1.75;;
71558;SDS011;59382;43.852;25.952;2023-05-13T01:21:58;4.22;;;1.63;;
71558;SDS011;59382;43.852;25.952;2023-05-13T01:24:23;3.80;;;2.03;;
71558;SDS011;59382;43.852;25.952;2023-05-13T01:26:49;2.35;;;1.85;;
71558;SDS011;59382;43.852;25.952;2023-05-13T01:29:14;4.88;;;1.90;;
71558;SDS011;59382;43.852;25.952;2023-05-13T01:31:40;1.95;;;1.73;;
71558;SDS011;59382;43.852;25.952;2023-05-13T01:34:08;3.53;;;1.83;;
71558;SDS011;59382;43.852;25.952;2023-05-13T01:36:36;3.90;;;1.70;;
71558;SDS011;59382;43.852;25.952;2023-05-13T01:39:03;3.97;;;1.98;;
71558;SDS011;59382;43.852;25.952;2023-05-13T01:41:29;3.13;;;1.95;;
71558;SDS011;59382;43.852;25.952;2023-05-13T01:43:54;2.35;;;1.70;;
71558;SDS011;59382;43.852;25.952;2023-05-13T01:46:20;5.22;;;1.70;;
71558;SDS011;59382;43.852;25.952;2023-05-13T01:48:46;9.20;;;1.83;;
71558;SDS011;59382;43.852;25.952;2023-05-13T01:51:11;2.85;;;1.83;;
71558;SDS011;59382;43.852;25.952;2023-05-13T01:53:37;3.67;;;2.30;;
71558;SDS011;59382;43.852;25.952;2023-05-13T01:56:03;7.53;;;2.20;;
71558;SDS011;59382;43.852;25.952;2023-05-13T01:58:28;4.93;;;2.25;;
71558;SDS011;59382;43.852;25.952;2023-05-13T02:00:54;4.30;;;2.28;;
71558;SDS011;59382;43.852;25.952;2023-05-13T02:03:19;2.60;;;2.38;;
71558;SDS011;59382;43.852;25.952;2023-05-13T02:05:45;5.57;;;2.38;;
71558;SDS011;59382;43.852;25.952;2023-05-13T02:08:12;5.80;;;2.15;;
71558;SDS011;59382;43.852;25.952;2023-05-13T02:10:38;3.28;;;2.40;;
71558;SDS011;59382;43.852;25.952;2023-05-13T02:13:03;3.78;;;2.17;;
71558;SDS011;59382;43.852;25.952;2023-05-13T02:15:29;5.43;;;2.22;;
71558;SDS011;59382;43.852;25.952;2023-05-13T02:17:54;3.38;;;1.98;;
71558;SDS011;59382;43.852;25.952;2023-05-13T02:20:20;6.05;;;2.13;;
71558;SDS011;59382;43.852;25.952;2023-05-13T02:22:45;2.80;;;2.17;;
71558;SDS011;59382;43.852;25.952;2023-05-13T02:25:11;3.83;;;1.52;;
71558;SDS011;59382;43.852;25.952;2023-05-13T02:27:36;6.22;;;2.05;;
71558;SDS011;59382;43.852;25.952;2023-05-13T02:30:02;3.88;;;1.92;;
71558;SDS011;59382;43.852;25.952;2023-05-13T02:32:28;4.97;;;1.75;;
71558;SDS011;59382;43.852;25.952;2023-05-13T02:34:53;4.15;;;1.90;;
71558;SDS011;59382;43.852;25.952;2023-05-13T02:37:19;3.92;;;1.88;;
71558;SDS011;59382;43.852;25.952;2023-05-13T02:39:45;3.85;;;1.90;;
71558;SDS011;59382;43.852;25.952;2023-05-13T02:42:10;5.97;;;1.90;;
71558;SDS011;59382;43.852;25.952;2023-05-13T02:44:36;3.90;;;1.67;;
71558;SDS011;59382;43.852;25.952;2023-05-13T02:47:01;3.65;;;2.00;;
71558;SDS011;59382;43.852;25.952;2023-05-13T02:49:27;2.35;;;2.05;;
71558;SDS011;59382;43.852;25.952;2023-05-13T02:51:52;2.35;;;1.90;;
71558;SDS011;59382;43.852;25.952;2023-05-13T02:54:18;5.63;;;2.05;;
71558;SDS011;59382;43.852;25.952;2023-05-13T02:56:43;4.35;;;2.05;;
71558;SDS011;59382;43.852;25.952;2023-05-13T02:59:09;2.22;;;1.90;;
71558;SDS011;59382;43.852;25.952;2023-05-13T03:01:35;2.75;;;2.08;;
71558;SDS011;59382;43.852;25.952;2023-05-13T03:04:00;1.80;;;1.70;;
71558;SDS011;59382;43.852;25.952;2023-05-13T03:06:26;4.55;;;2.03;;
71558;SDS011;59382;43.852;25.952;2023-05-13T03:08:52;3.25;;;1.95;;
71558;SDS011;59382;43.852;25.952;2023-05-13T03:11:17;2.42;;;1.75;;
71558;SDS011;59382;43.852;25.952;2023-05-13T03:13:43;4.30;;;1.90;;
71558;SDS011;59382;43.852;25.952;2023-05-13T03:16:08;2.20;;;1.90;;
71558;SDS011;59382;43.852;25.952;2023-05-13T03:18:34;2.15;;;1.85;;
71558;SDS011;59382;43.852;25.952;2023-05-13T03:20:59;5.72;;;2.30;;
71558;SDS011;59382;43.852;25.952;2023-05-13T03:23:25;3.25;;;2.20;;
71558;SDS011;59382;43.852;25.952;2023-05-13T03:25:51;3.50;;;2.05;;
71558;SDS011;59382;43.852;25.952;2023-05-13T03:28:16;3.78;;;2.35;;
71558;SDS011;59382;43.852;25.952;2023-05-13T03:30:42;3.65;;;1.90;;
71558;SDS011;59382;43.852;25.952;2023-05-13T03:33:08;5.97;;;1.92;;
71558;SDS011;59382;43.852;25.952;2023-05-13T03:35:33;2.88;;;2.58;;
71558;SDS011;59382;43.852;25.952;2023-05-13T03:37:59;9.18;;;2.60;;
71558;SDS011;59382;43.852;25.952;2023-05-13T03:40:24;3.92;;;2.13;;
71558;SDS011;59382;43.852;25.952;2023-05-13T03:42:50;3.20;;;1.92;;
71558;SDS011;59382;43.852;25.952;2023-05-13T03:45:15;1.90;;;1.65;;
71558;SDS011;59382;43.852;25.952;2023-05-13T03:47:41;3.78;;;2.30;;
71558;SDS011;59382;43.852;25.952;2023-05-13T03:50:07;3.03;;;1.92;;
71558;SDS011;59382;43.852;25.952;2023-05-13T03:52:33;2.90;;;2.30;;
71558;SDS011;59382;43.852;25.952;2023-05-13T03:54:58;5.75;;;2.20;;
71558;SDS011;59382;43.852;25.952;2023-05-13T03:57:24;3.55;;;2.20;;
71558;SDS011;59382;43.852;25.952;2023-05-13T03:59:49;6.57;;;2.42;;
71558;SDS011;59382;43.852;25.952;2023-05-13T04:02:15;3.20;;;2.65;;
71558;SDS011;59382;43.852;25.952;2023-05-13T04:04:40;8.35;;;2.50;;
71558;SDS011;59382;43.852;25.952;2023-05-13T04:07:06;5.20;;;2.40;;
71558;SDS011;59382;43.852;25.952;2023-05-13T04:09:31;2.78;;;1.83;;
71558;SDS011;59382;43.852;25.952;2023-05-13T04:11:57;8.15;;;2.17;;
71558;SDS011;59382;43.852;25.952;2023-05-13T04:14:22;4.20;;;2.13;;
71558;SDS011;59382;43.852;25.952;2023-05-13T04:16:48;2.70;;;2.25;;
71558;SDS011;59382;43.852;25.952;2023-05-13T04:19:13;7.32;;;2.40;;
71558;SDS011;59382;43.852;25.952;2023-05-13T04:21:39;4.60;;;2.30;;
71558;SDS011;59382;43.852;25.952;2023-05-13T04:24:04;4.95;;;2.70;;
71558;SDS011;59382;43.852;25.952;2023-05-13T04:26:30;4.65;;;2.33;;
71558;SDS011;59382;43.852;25.952;2023-05-13T04:28:56;5.28;;;2.88;;
71558;SDS011;59382;43.852;25.952;2023-05-13T04:31:21;3.05;;;2.40;;
71558;SDS011;59382;43.852;25.952;2023-05-13T04:33:47;5.07;;;2.95;;
71558;SDS011;59382;43.852;25.952;2023-05-13T04:36:13;4.13;;;2.25;;
71558;SDS011;59382;43.852;25.952;2023-05-13T04:38:39;8.73;;;2.13;;
71558;SDS011;59382;43.852;25.952;2023-05-13T04:41:05;4.63;;;2.60;;
71558;SDS011;59382;43.852;25.952;2023-05-13T04:43:30;6.05;;;2.55;;
71558;SDS011;59382;43.852;25.952;2023-05-13T04:45:56;3.45;;;2.72;;
71558;SDS011;59382;43.852;25.952;2023-05-13T04:48:21;3.97;;;2.70;;
71558;SDS011;59382;43.852;25.952;2023-05-13T04:50:47;4.88;;;2.35;;
71558;SDS011;59382;43.852;25.952;2023-05-13T04:53:13;3.60;;;2.60;;
71558;SDS011;59382;43.852;25.952;2023-05-13T04:55:39;3.45;;;2.35;;
71558;SDS011;59382;43.852;25.952;2023-05-13T04:58:05;4.18;;;2.55;;
71558;SDS011;59382;43.852;25.952;2023-05-13T05:00:30;10.27;;;3.40;;
71558;SDS011;59382;43.852;25.952;2023-05-13T05:02:56;8.15;;;3.00;;
71558;SDS011;59382;43.852;25.952;2023-05-13T05:05:21;6.82;;;3.10;;
71558;SDS011;59382;43.852;25.952;2023-05-13T05:07:47;3.95;;;2.53;;
71558;SDS011;59382;43.852;25.952;2023-05-13T05:10:12;5.03;;;3.30;;
71558;SDS011;59382;43.852;25.952;2023-05-13T05:12:39;6.68;;;4.10;;
71558;SDS011;59382;43.852;25.952;2023-05-13T05:15:06;5.65;;;3.13;;
71558;SDS011;59382;43.852;25.952;2023-05-13T05:17:39;5.57;;;3.25;;
71558;SDS011;59382;43.852;25.952;2023-05-13T05:20:06;8.77;;;3.28;;
71558;SDS011;59382;43.852;25.952;2023-05-13T05:22:32;4.75;;;3.00;;
71558;SDS011;59382;43.852;25.952;2023-05-13T05:24:59;8.48;;;3.55;;
71558;SDS011;59382;43.852;25.952;2023-05-13T05:27:24;5.05;;;3.25;;
71558;SDS011;59382;43.852;25.952;2023-05-13T05:29:50;7.22;;;3.45;;
71558;SDS011;59382;43.852;25.952;2023-05-13T05:32:15;5.90;;;3.65;;
71558;SDS011;59382;43.852;25.952;2023-05-13T05:34:41;8.55;;;3.38;;
71558;SDS011;59382;43.852;25.952;2023-05-13T05:37:06;6.57;;;3.30;;
71558;SDS011;59382;43.852;25.952;2023-05-13T05:39:32;7.30;;;3.15;;
71558;SDS011;59382;43.852;25.952;2023-05-13T05:41:59;7.82;;;3.00;;
71558;SDS011;59382;43.852;25.952;2023-05-13T05:44:24;6.03;;;3.40;;
71558;SDS011;59382;43.852;25.952;2023-05-13T05:46:50;6.13;;;2.70;;
71558;SDS011;59382;43.852;25.952;2023-05-13T05:49:16;4.43;;;2.95;;
71558;SDS011;59382;43.852;25.952;2023-05-13T05:51:42;8.57;;;3.55;;
71558;SDS011;59382;43.852;25.952;2023-05-13T05:54:07;5.05;;;2.78;;
71558;SDS011;59382;43.852;25.952;2023-05-13T05:56:33;5.97;;;3.00;;
71558;SDS011;59382;43.852;25.952;2023-05-13T05:58:58;7.10;;;2.95;;
71558;SDS011;59382;43.852;25.952;2023-05-13T06:01:24;13.25;;;3.03;;
71558;SDS011;59382;43.852;25.952;2023-05-13T06:03:49;16.92;;;2.72;;
71558;SDS011;59382;43.852;25.952;2023-05-13T06:06:15;4.85;;;2.92;;
71558;SDS011;59382;43.852;25.952;2023-05-13T06:08:40;8.98;;;3.25;;
71558;SDS011;59382;43.852;25.952;2023-05-13T06:11:06;7.70;;;2.58;;
71558;SDS011;59382;43.852;25.952;2023-05-13T06:13:32;3.95;;;2.47;;
71558;SDS011;59382;43.852;25.952;2023-05-13T06:15:57;5.18;;;2.40;;
71558;SDS011;59382;43.852;25.952;2023-05-13T06:18:23;9.00;;;2.85;;
71558;SDS011;59382;43.852;25.952;2023-05-13T06:20:49;3.08;;;2.40;;
71558;SDS011;59382;43.852;25.952;2023-05-13T06:23:15;4.45;;;2.67;;
71558;SDS011;59382;43.852;25.952;2023-05-13T06:25:40;5.95;;;2.40;;
71558;SDS011;59382;43.852;25.952;2023-05-13T06:28:06;8.93;;;2.90;;
71558;SDS011;59382;43.852;25.952;2023-05-13T06:30:32;5.22;;;2.42;;
71558;SDS011;59382;43.852;25.952;2023-05-13T06:32:58;4.63;;;2.70;;
71558;SDS011;59382;43.852;25.952;2023-05-13T06:35:23;10.70;;;2.80;;
71558;SDS011;59382;43.852;25.952;2023-05-13T06:37:49;4.63;;;2.50;;
71558;SDS011;59382;43.852;25.952;2023-05-13T06:40:14;5.82;;;2.15;;
71558;SDS011;59382;43.852;25.952;2023-05-13T06:42:40;8.85;;;2.20;;
71558;SDS011;59382;43.852;25.952;2023-05-13T06:45:06;4.57;;;1.98;;
71558;SDS011;59382;43.852;25.952;2023-05-13T06:47:32;5.85;;;2.03;;
71558;SDS011;59382;43.852;25.952;2023-05-13T06:49:58;6.70;;;1.85;;
71558;SDS011;59382;43.852;25.952;2023-05-13T06:52:23;6.20;;;2.20;;
71558;SDS011;59382;43.852;25.952;2023-05-13T06:54:49;5.45;;;2.30;;
71558;SDS011;59382;43.852;25.952;2023-05-13T06:57:14;9.13;;;2.50;;
71558;SDS011;59382;43.852;25.952;2023-05-13T06:59:40;8.30;;;2.42;;
71558;SDS011;59382;43.852;25.952;2023-05-13T07:02:05;5.90;;;2.08;;
71558;SDS011;59382;43.852;25.952;2023-05-13T07:04:33;4.80;;;2.47;;
71558;SDS011;59382;43.852;25.952;2023-05-13T07:06:59;2.08;;;1.77;;
71558;SDS011;59382;43.852;25.952;2023-05-13T07:09:25;5.95;;;1.83;;
71558;SDS011;59382;43.852;25.952;2023-05-13T07:11:51;3.22;;;2.47;;
71558;SDS011;59382;43.852;25.952;2023-05-13T07:14:17;1.85;;;1.75;;
71558;SDS011;59382;43.852;25.952;2023-05-13T07:16:42;7.55;;;1.60;;
71558;SDS011;59382;43.852;25.952;2023-05-13T07:19:08;2.72;;;1.77;;
71558;SDS011;59382;43.852;25.952;2023-05-13T07:21:33;2.15;;;1.60;;
71558;SDS011;59382;43.852;25.952;2023-05-13T07:23:59;1.90;;;1.52;;
71558;SDS011;59382;43.852;25.952;2023-05-13T07:26:26;4.10;;;3.33;;
71558;SDS011;59382;43.852;25.952;2023-05-13T07:28:52;6.72;;;2.38;;
71558;SDS011;59382;43.852;25.952;2023-05-13T07:31:17;4.20;;;1.20;;
71558;SDS011;59382;43.852;25.952;2023-05-13T07:33:43;2.08;;;1.30;;
71558;SDS011;59382;43.852;25.952;2023-05-13T07:36:08;3.20;;;1.30;;
71558;SDS011;59382;43.852;25.952;2023-05-13T07:38:34;6.40;;;1.85;;
71558;SDS011;59382;43.852;25.952;2023-05-13T07:40:59;1.90;;;1.25;;
71558;SDS011;59382;43.852;25.952;2023-05-13T07:43:25;1.27;;;1.08;;
71558;SDS011;59382;43.852;25.952;2023-05-13T07:45:51;1.92;;;1.20;;
71558;SDS011;59382;43.852;25.952;2023-05-13T07:48:17;9.57;;;1.65;;
71558;SDS011;59382;43.852;25.952;2023-05-13T07:50:44;2.47;;;1.13;;
71558;SDS011;59382;43.852;25.952;2023-05-13T07:53:10;1.75;;;1.10;;
71558;SDS011;59382;43.852;25.952;2023-05-13T07:55:35;4.80;;;1.27;;
71558;SDS011;59382;43.852;25.952;2023-05-13T07:58:01;1.45;;;1.30;;
71558;SDS011;59382;43.852;25.952;2023-05-13T08:00:26;2.83;;;1.30;;
71558;SDS011;59382;43.852;25.952;2023-05-13T08:02:52;4.90;;;1.55;;
71558;SDS011;59382;43.852;25.952;2023-05-13T08:05:18;2.58;;;1.25;;
71558;SDS011;59382;43.852;25.952;2023-05-13T08:07:43;5.65;;;1.45;;
71558;SDS011;59382;43.852;25.952;2023-05-13T08:10:09;6.45;;;1.50;;
71558;SDS011;59382;43.852;25.952;2023-05-13T08:12:34;2.42;;;1.17;;
71558;SDS011;59382;43.852;25.952;2023-05-13T08:15:00;1.60;;;1.30;;
71558;SDS011;59382;43.852;25.952;2023-05-13T08:17:28;4.88;;;0.90;;
71558;SDS011;59382;43.852;25.952;2023-05-13T08:19:53;5.95;;;1.30;;
71558;SDS011;59382;43.852;25.952;2023-05-13T08:22:19;1.30;;;1.20;;
71558;SDS011;59382;43.852;25.952;2023-05-13T08:24:44;1.35;;;1.10;;
71558;SDS011;59382;43.852;25.952;2023-05-13T08:27:10;3.42;;;3.08;;
71558;SDS011;59382;43.852;25.952;2023-05-13T08:29:36;5.47;;;1.10;;
71558;SDS011;59382;43.852;25.952;2023-05-13T08:32:02;6.05;;;1.52;;
71558;SDS011;59382;43.852;25.952;2023-05-13T08:34:29;4.95;;;1.40;;
71558;SDS011;59382;43.852;25.952;2023-05-13T08:36:54;1.27;;;1.17;;
71558;SDS011;59382;43.852;25.952;2023-05-13T08:39:20;8.05;;;1.58;;
71558;SDS011;59382;43.852;25.952;2023-05-13T08:41:46;3.13;;;1.17;;
71558;SDS011;59382;43.852;25.952;2023-05-13T08:44:12;1.75;;;1.40;;
71558;SDS011;59382;43.852;25.952;2023-05-13T08:46:40;2.83;;;1.00;;
71558;SDS011;59382;43.852;25.952;2023-05-13T08:49:10;5.13;;;1.63;;
71558;SDS011;59382;43.852;25.952;2023-05-13T08:51:36;3.47;;;1.17;;
71558;SDS011;59382;43.852;25.952;2023-05-13T08:54:02;4.65;;;1.20;;
71558;SDS011;59382;43.852;25.952;2023-05-13T08:56:28;2.30;;;1.00;;
71558;SDS011;59382;43.852;25.952;2023-05-13T08:58:53;1.75;;;1.40;;
71558;SDS011;59382;43.852;25.952;2023-05-13T09:01:19;1.90;;;1.20;;
71558;SDS011;59382;43.852;25.952;2023-05-13T09:04:00;2.05;;;1.08;;
71558;SDS011;59382;43.852;25.952;2023-05-13T09:06:28;1.92;;;1.30;;
71558;SDS011;59382;43.852;25.952;2023-05-13T09:08:54;7.20;;;1.50;;
71558;SDS011;59382;43.852;25.952;2023-05-13T09:11:20;5.03;;;1.70;;
71558;SDS011;59382;43.852;25.952;2023-05-13T09:13:55;2.03;;;1.23;;
71558;SDS011;59382;43.852;25.952;2023-05-13T09:16:24;1.40;;;1.30;;
71558;SDS011;59382;43.852;25.952;2023-05-13T09:18:56;2.53;;;1.20;;
71558;SDS011;59382;43.852;25.952;2023-05-13T09:21:25;2.58;;;1.10;;
71558;SDS011;59382;43.852;25.952;2023-05-13T09:24:12;1.52;;;1.20;;
71558;SDS011;59382;43.852;25.952;2023-05-13T09:26:43;4.13;;;1.23;;
71558;SDS011;59382;43.852;25.952;2023-05-13T09:29:20;1.17;;;1.08;;
71558;SDS011;59382;43.852;25.952;2023-05-13T09:31:47;1.58;;;1.00;;
71558;SDS011;59382;43.852;25.952;2023-05-13T09:34:20;4.13;;;1.52;;
71558;SDS011;59382;43.852;25.952;2023-05-13T09:39:24;2.60;;;1.30;;
71558;SDS011;59382;43.852;25.952;2023-05-13T09:41:51;4.28;;;0.90;;
71558;SDS011;59382;43.852;25.952;2023-05-13T09:44:17;7.30;;;1.33;;
71558;SDS011;59382;43.852;25.952;2023-05-13T09:46:42;1.67;;;1.38;;
71558;SDS011;59382;43.852;25.952;2023-05-13T09:49:08;2.70;;;1.52;;
71558;SDS011;59382;43.852;25.952;2023-05-13T09:51:34;4.55;;;1.33;;
71558;SDS011;59382;43.852;25.952;2023-05-13T09:54:03;4.30;;;1.30;;
71558;SDS011;59382;43.852;25.952;2023-05-13T09:56:31;2.17;;;1.05;;
71558;SDS011;59382;43.852;25.952;2023-05-13T09:58:59;1.15;;;0.98;;
71558;SDS011;59382;43.852;25.952;2023-05-13T10:01:25;5.72;;;1.73;;
71558;SDS011;59382;43.852;25.952;2023-05-13T10:03:53;3.33;;;1.55;;
71558;SDS011;59382;43.852;25.952;2023-05-13T10:06:19;2.00;;;1.27;;
71558;SDS011;59382;43.852;25.952;2023-05-13T10:08:49;1.50;;;1.20;;
71558;SDS011;59382;43.852;25.952;2023-05-13T10:11:17;2.88;;;1.40;;
71558;SDS011;59382;43.852;25.952;2023-05-13T10:13:45;2.58;;;1.13;;
71558;SDS011;59382;43.852;25.952;2023-05-13T10:16:27;3.75;;;1.20;;
71558;SDS011;59382;43.852;25.952;2023-05-13T10:18:56;3.22;;;1.20;;
71558;SDS011;59382;43.852;25.952;2023-05-13T10:21:22;1.20;;;1.10;;
71558;SDS011;59382;43.852;25.952;2023-05-13T10:23:49;5.60;;;2.05;;
71558;SDS011;59382;43.852;25.952;2023-05-13T10:26:16;1.35;;;1.20;;
71558;SDS011;59382;43.852;25.952;2023-05-13T10:28:42;2.05;;;1.20;;
71558;SDS011;59382;43.852;25.952;2023-05-13T10:31:10;5.60;;;1.92;;
71558;SDS011;59382;43.852;25.952;2023-05-13T10:33:36;3.20;;;1.00;;
71558;SDS011;59382;43.852;25.952;2023-05-13T10:44:41;3.95;;;1.40;;
71558;SDS011;59382;43.852;25.952;2023-05-13T10:47:08;1.45;;;1.10;;
71558;SDS011;59382;43.852;25.952;2023-05-13T10:49:33;3.63;;;1.33;;
71558;SDS011;59382;43.852;25.952;2023-05-13T10:52:03;4.28;;;0.95;;
71558;SDS011;59382;43.852;25.952;2023-05-13T10:54:36;5.30;;;1.35;;
71558;SDS011;59382;43.852;25.952;2023-05-13T10:57:05;3.47;;;1.45;;
71558;SDS011;59382;43.852;25.952;2023-05-13T10:59:30;6.93;;;1.10;;
71558;SDS011;59382;43.852;25.952;2023-05-13T11:01:59;2.67;;;1.45;;
71558;SDS011;59382;43.852;25.952;2023-05-13T11:04:26;5.18;;;1.45;;
71558;SDS011;59382;43.852;25.952;2023-05-13T11:06:52;1.88;;;1.48;;
71558;SDS011;59382;43.852;25.952;2023-05-13T11:11:46;4.13;;;1.20;;
71558;SDS011;59382;43.852;25.952;2023-05-13T11:14:22;2.17;;;1.17;;
71558;SDS011;59382;43.852;25.952;2023-05-13T11:16:53;1.60;;;1.42;;
71558;SDS011;59382;43.852;25.952;2023-05-13T11:19:28;2.30;;;1.30;;
71558;SDS011;59382;43.852;25.952;2023-05-13T11:22:08;2.58;;;1.50;;
71558;SDS011;59382;43.852;25.952;2023-05-13T11:24:36;5.82;;;2.47;;
71558;SDS011;59382;43.852;25.952;2023-05-13T11:27:17;3.88;;;1.65;;
71558;SDS011;59382;43.852;25.952;2023-05-13T11:29:54;5.05;;;1.70;;
71558;SDS011;59382;43.852;25.952;2023-05-13T11:35:12;8.30;;;2.00;;
71558;SDS011;59382;43.852;25.952;2023-05-13T11:37:43;5.85;;;1.77;;
71558;SDS011;59382;43.852;25.952;2023-05-13T11:40:09;3.80;;;1.38;;
71558;SDS011;59382;43.852;25.952;2023-05-13T11:42:35;1.63;;;1.10;;
71558;SDS011;59382;43.852;25.952;2023-05-13T11:45:03;1.75;;;1.38;;
71558;SDS011;59382;43.852;25.952;2023-05-13T11:47:30;2.00;;;1.02;;
71558;SDS011;59382;43.852;25.952;2023-05-13T11:49:55;2.25;;;1.38;;
71558;SDS011;59382;43.852;25.952;2023-05-13T11:52:22;1.88;;;1.38;;
71558;SDS011;59382;43.852;25.952;2023-05-13T11:54:54;3.88;;;1.42;;
71558;SDS011;59382;43.852;25.952;2023-05-13T12:02:48;1.67;;;1.33;;
71558;SDS011;59382;43.852;25.952;2023-05-13T12:05:14;3.25;;;1.48;;
71558;SDS011;59382;43.852;25.952;2023-05-13T12:07:39;1.25;;;1.15;;
71558;SDS011;59382;43.852;25.952;2023-05-13T12:10:05;4.38;;;1.52;;
71558;SDS011;59382;43.852;25.952;2023-05-13T12:12:32;5.25;;;1.63;;
71558;SDS011;59382;43.852;25.952;2023-05-13T12:15:02;4.97;;;1.90;;
71558;SDS011;59382;43.852;25.952;2023-05-13T12:17:29;3.40;;;1.20;;
71558;SDS011;59382;43.852;25.952;2023-05-13T12:20:09;3.20;;;1.70;;
71558;SDS011;59382;43.852;25.952;2023-05-13T12:28:08;1.63;;;1.30;;
71558;SDS011;59382;43.852;25.952;2023-05-13T12:30:47;3.63;;;1.70;;
71558;SDS011;59382;43.852;25.952;2023-05-13T12:33:24;2.15;;;1.40;;
71558;SDS011;59382;43.852;25.952;2023-05-13T12:35:52;2.90;;;1.50;;
71558;SDS011;59382;43.852;25.952;2023-05-13T12:38:20;3.50;;;1.80;;
71558;SDS011;59382;43.852;25.952;2023-05-13T12:40:48;3.03;;;1.25;;
71558;SDS011;59382;43.852;25.952;2023-05-13T12:43:15;4.00;;;1.65;;
71558;SDS011;59382;43.852;25.952;2023-05-13T12:45:42;1.63;;;1.30;;
71558;SDS011;59382;43.852;25.952;2023-05-13T12:48:09;9.70;;;1.60;;
71558;SDS011;59382;43.852;25.952;2023-05-13T12:50:35;2.75;;;1.30;;
71558;SDS011;59382;43.852;25.952;2023-05-13T12:53:01;2.60;;;1.33;;
71558;SDS011;59382;43.852;25.952;2023-05-13T12:55:26;3.13;;;1.38;;
71558;SDS011;59382;43.852;25.952;2023-05-13T12:57:56;3.20;;;1.60;;
71558;SDS011;59382;43.852;25.952;2023-05-13T13:00:25;6.82;;;2.15;;
71558;SDS011;59382;43.852;25.952;2023-05-13T13:02:51;1.88;;;1.50;;
71558;SDS011;59382;43.852;25.952;2023-05-13T13:05:21;6.60;;;1.30;;
71558;SDS011;59382;43.852;25.952;2023-05-13T13:07:47;7.28;;;3.08;;
71558;SDS011;59382;43.852;25.952;2023-05-13T13:10:13;7.47;;;1.70;;
71558;SDS011;59382;43.852;25.952;2023-05-13T13:12:38;6.80;;;1.75;;
71558;SDS011;59382;43.852;25.952;2023-05-13T13:15:05;2.47;;;1.45;;
71558;SDS011;59382;43.852;25.952;2023-05-13T13:17:31;3.22;;;1.55;;
71558;SDS011;59382;43.852;25.952;2023-05-13T13:19:57;2.25;;;1.38;;
71558;SDS011;59382;43.852;25.952;2023-05-13T13:22:22;3.03;;;1.50;;
71558;SDS011;59382;43.852;25.952;2023-05-13T13:24:48;6.10;;;1.40;;
71558;SDS011;59382;43.852;25.952;2023-05-13T13:27:13;1.80;;;1.20;;
71558;SDS011;59382;43.852;25.952;2023-05-13T13:29:39;2.05;;;1.60;;
71558;SDS011;59382;43.852;25.952;2023-05-13T13:32:05;3.25;;;1.55;;
71558;SDS011;59382;43.852;25.952;2023-05-13T13:34:31;1.83;;;1.40;;
71558;SDS011;59382;43.852;25.952;2023-05-13T13:36:56;1.75;;;1.25;;
71558;SDS011;59382;43.852;25.952;2023-05-13T13:39:22;5.68;;;1.40;;
71558;SDS011;59382;43.852;25.952;2023-05-13T13:41:47;2.08;;;1.17;;
71558;SDS011;59382;43.852;25.952;2023-05-13T13:44:13;4.40;;;1.45;;
71558;SDS011;59382;43.852;25.952;2023-05-13T13:46:38;3.70;;;1.63;;
71558;SDS011;59382;43.852;25.952;2023-05-13T13:49:04;7.43;;;2.22;;
71558;SDS011;59382;43.852;25.952;2023-05-13T13:51:29;1.45;;;1.25;;
71558;SDS011;59382;43.852;25.952;2023-05-13T13:53:56;2.75;;;1.30;;
71558;SDS011;59382;43.852;25.952;2023-05-13T13:56:21;2.67;;;1.42;;
71558;SDS011;59382;43.852;25.952;2023-05-13T13:58:47;3.33;;;1.70;;
71558;SDS011;59382;43.852;25.952;2023-05-13T14:01:12;5.30;;;1.65;;
71558;SDS011;59382;43.852;25.952;2023-05-13T14:03:39;3.75;;;2.40;;
71558;SDS011;59382;43.852;25.952;2023-05-13T14:06:05;4.85;;;1.20;;
71558;SDS011;59382;43.852;25.952;2023-05-13T14:08:30;4.18;;;1.67;;
71558;SDS011;59382;43.852;25.952;2023-05-13T14:10:56;3.72;;;1.52;;
71558;SDS011;59382;43.852;25.952;2023-05-13T14:13:22;6.10;;;2.08;;
71558;SDS011;59382;43.852;25.952;2023-05-13T14:15:47;2.55;;;1.70;;
71558;SDS011;59382;43.852;25.952;2023-05-13T14:18:13;5.32;;;1.67;;
71558;SDS011;59382;43.852;25.952;2023-05-13T14:20:38;6.07;;;1.60;;
71558;SDS011;59382;43.852;25.952;2023-05-13T14:23:04;5.72;;;1.60;;
71558;SDS011;59382;43.852;25.952;2023-05-13T14:25:29;2.75;;;1.45;;
71558;SDS011;59382;43.852;25.952;2023-05-13T14:27:55;1.48;;;1.35;;
71558;SDS011;59382;43.852;25.952;2023-05-13T14:30:21;3.40;;;1.73;;
71558;SDS011;59382;43.852;25.952;2023-05-13T14:32:47;2.83;;;1.77;;
71558;SDS011;59382;43.852;25.952;2023-05-13T14:35:12;1.60;;;1.35;;
71558;SDS011;59382;43.852;25.952;2023-05-13T14:37:42;4.72;;;1.48;;
71558;SDS011;59382;43.852;25.952;2023-05-13T14:40:08;1.98;;;1.65;;
71558;SDS011;59382;43.852;25.952;2023-05-13T14:42:34;2.35;;;1.55;;
71558;SDS011;59382;43.852;25.952;2023-05-13T14:44:59;3.53;;;1.58;;
71558;SDS011;59382;43.852;25.952;2023-05-13T14:47:25;5.32;;;2.50;;
71558;SDS011;59382;43.852;25.952;2023-05-13T14:49:51;2.45;;;1.40;;
71558;SDS011;59382;43.852;25.952;2023-05-13T14:52:16;2.78;;;1.52;;
71558;SDS011;59382;43.852;25.952;2023-05-13T14:54:42;6.97;;;1.85;;
71558;SDS011;59382;43.852;25.952;2023-05-13T14:57:07;3.63;;;2.00;;
71558;SDS011;59382;43.852;25.952;2023-05-13T14:59:33;8.38;;;1.85;;
71558;SDS011;59382;43.852;25.952;2023-05-13T15:02:00;2.08;;;1.50;;
71558;SDS011;59382;43.852;25.952;2023-05-13T15:04:26;1.60;;;1.40;;
71558;SDS011;59382;43.852;25.952;2023-05-13T15:06:53;5.20;;;1.77;;